Time;durP1;ratioP1;P1;durP2;ratioP2;P2;SDS_P1;SDS_P2;PMS_P1;PMS_P2;Temp;Humidity;BMP_temperature;BMP_pressure;BME280_temperature;BME280_humidity;BME280_pressure;Samples;Min_cycle;Max_cycle;Signal;HPM_P1;HPM_P2
2023/04/20 00:00:56;;;;;;;4.00;2.47;;;6.60;97.40;;;;;;4963467;28;20046;-70
2023/04/20 00:03:21;;;;;;;3.40;2.63;;;6.70;98.10;;;;;;4980114;28;20130;-70
2023/04/20 00:05:50;;;;;;;5.07;2.92;;;6.70;98.20;;;;;;4968478;28;20038;-71
2023/04/20 00:08:16;;;;;;;4.05;2.60;;;6.80;98.80;;;;;;4965099;28;20030;-70
2023/04/20 00:10:43;;;;;;;5.55;2.88;;;6.90;99.50;;;;;;4982850;28;20431;-70
2023/04/20 00:13:09;;;;;;;5.03;2.80;;;7.00;99.90;;;;;;4965303;28;20049;-71
2023/04/20 00:15:35;;;;;;;3.38;2.33;;;7.10;99.80;;;;;;4970949;28;20438;-70
2023/04/20 00:18:01;;;;;;;4.38;2.72;;;7.10;99.90;;;;;;4967068;28;20122;-71
2023/04/20 00:20:27;;;;;;;4.50;1.80;;;7.20;99.90;;;;;;4965035;28;20130;-70
2023/04/20 00:22:53;;;;;;;4.65;2.13;;;7.30;99.90;;;;;;4980061;28;20403;-71
2023/04/20 00:25:19;;;;;;;5.68;2.35;;;7.30;99.90;;;;;;4983941;28;20129;-71
2023/04/20 00:27:45;;;;;;;2.65;1.92;;;7.40;99.90;;;;;;4969397;28;20049;-70
2023/04/20 00:30:11;;;;;;;6.53;2.22;;;7.40;99.90;;;;;;4966156;28;20051;-71
2023/04/20 00:32:37;;;;;;;5.15;2.10;;;7.50;99.90;;;;;;4965973;28;20397;-71
2023/04/20 00:35:03;;;;;;;4.80;1.90;;;7.60;99.90;;;;;;4986650;28;20035;-70
2023/04/20 00:37:29;;;;;;;5.55;1.77;;;7.60;99.90;;;;;;4984524;28;20048;-70
2023/04/20 00:39:56;;;;;;;4.80;1.77;;;7.60;99.90;;;;;;4983673;28;20038;-71
2023/04/20 00:42:22;;;;;;;3.00;1.83;;;7.60;99.90;;;;;;4967267;28;20042;-69
2023/04/20 00:44:49;;;;;;;4.65;1.73;;;7.70;99.90;;;;;;4969768;28;20501;-70
2023/04/20 00:47:15;;;;;;;5.55;2.22;;;7.80;99.90;;;;;;4968339;28;20042;-69
2023/04/20 00:49:41;;;;;;;4.68;1.73;;;7.80;99.90;;;;;;4969719;28;20137;-69
2023/04/20 00:52:08;;;;;;;7.40;1.98;;;7.90;99.90;;;;;;4970380;28;20042;-70
2023/04/20 00:54:35;;;;;;;4.60;2.17;;;7.90;99.90;;;;;;4982438;28;20045;-69
2023/04/20 00:57:02;;;;;;;2.78;1.65;;;7.90;99.90;;;;;;4970219;28;20042;-70
2023/04/20 00:59:28;;;;;;;3.97;2.05;;;8.00;99.90;;;;;;4966196;28;20039;-69
2023/04/20 01:01:54;;;;;;;4.93;1.83;;;8.00;99.90;;;;;;4955413;28;20045;-69
2023/04/20 01:04:20;;;;;;;3.83;2.03;;;8.00;99.90;;;;;;4966776;28;20578;-69
2023/04/20 01:06:46;;;;;;;3.13;1.75;;;8.00;99.90;;;;;;4969114;28;20108;-70
2023/04/20 01:09:12;;;;;;;4.10;2.00;;;8.10;99.90;;;;;;4968831;28;20082;-70
2023/04/20 01:11:38;;;;;;;7.05;1.88;;;8.10;99.90;;;;;;4970282;28;20398;-70
2023/04/20 01:14:04;;;;;;;3.20;1.73;;;8.10;99.90;;;;;;4969993;28;20515;-70
2023/04/20 01:16:30;;;;;;;5.50;1.88;;;8.20;99.90;;;;;;4971020;28;20073;-70
2023/04/20 01:18:56;;;;;;;4.47;1.55;;;8.20;99.90;;;;;;4959715;28;20046;-70
2023/04/20 01:21:22;;;;;;;4.65;1.92;;;8.20;99.90;;;;;;4970657;28;20184;-70
2023/04/20 01:23:48;;;;;;;3.33;1.63;;;8.20;99.90;;;;;;4984508;28;20051;-70
2023/04/20 01:26:16;;;;;;;4.35;1.58;;;8.30;99.90;;;;;;4967613;28;20124;-70
2023/04/20 01:28:42;;;;;;;3.88;1.67;;;8.30;99.90;;;;;;4967364;28;20046;-70
2023/04/20 01:31:09;;;;;;;3.28;1.55;;;8.30;99.90;;;;;;4965420;28;20050;-70
2023/04/20 01:33:36;;;;;;;4.22;1.52;;;8.40;99.90;;;;;;4969400;28;21324;-70
2023/04/20 01:36:02;;;;;;;3.28;2.20;;;8.40;99.90;;;;;;4965410;28;20054;-71
2023/04/20 01:38:33;;;;;;;5.20;1.50;;;8.50;99.90;;;;;;4968973;28;20046;-70
2023/04/20 01:41:03;;;;;;;8.40;1.65;;;8.50;99.90;;;;;;4968954;28;20050;-70
2023/04/20 01:43:29;;;;;;;3.22;1.40;;;8.50;99.90;;;;;;4981396;28;20486;-70
2023/04/20 01:45:55;;;;;;;3.05;1.50;;;8.50;99.90;;;;;;4954107;28;20050;-70
2023/04/20 01:48:21;;;;;;;3.70;1.55;;;8.50;99.90;;;;;;4968802;28;20530;-70
2023/04/20 01:50:50;;;;;;;2.80;1.67;;;8.60;99.90;;;;;;4966661;28;20050;-70
2023/04/20 01:53:16;;;;;;;3.30;1.50;;;8.60;99.90;;;;;;4969839;28;20034;-70
2023/04/20 01:55:42;;;;;;;3.72;1.40;;;8.60;99.90;;;;;;4966324;28;20064;-70
2023/04/20 01:58:08;;;;;;;4.15;1.73;;;8.60;99.90;;;;;;4984643;28;20096;-70
2023/04/20 02:00:34;;;;;;;3.72;1.65;;;8.60;99.90;;;;;;4967045;28;20046;-71
2023/04/20 02:03:00;;;;;;;5.97;1.38;;;8.60;99.90;;;;;;4968172;28;20513;-70
2023/04/20 02:05:25;;;;;;;4.95;1.85;;;8.60;99.90;;;;;;4961436;28;20050;-70
2023/04/20 02:07:51;;;;;;;4.88;1.45;;;8.60;99.90;;;;;;4966107;28;20038;-70
2023/04/20 02:10:17;;;;;;;4.97;1.52;;;8.60;99.90;;;;;;4967845;28;20037;-70
2023/04/20 02:12:43;;;;;;;6.50;2.45;;;8.60;99.90;;;;;;4969660;28;20042;-70
2023/04/20 02:15:09;;;;;;;6.00;1.58;;;8.50;99.90;;;;;;4966197;28;20034;-70
2023/04/20 02:17:37;;;;;;;3.35;1.20;;;8.50;99.90;;;;;;4980698;28;20042;-71
2023/04/20 02:20:10;;;;;;;3.97;1.10;;;8.50;99.90;;;;;;4967369;28;20041;-70
2023/04/20 02:22:36;;;;;;;3.95;1.20;;;8.50;99.90;;;;;;4955346;28;20053;-70
2023/04/20 02:25:04;;;;;;;6.38;1.58;;;8.40;99.90;;;;;;4980080;28;20486;-70
2023/04/20 02:27:31;;;;;;;3.08;1.08;;;8.50;99.90;;;;;;4966614;28;20081;-69
2023/04/20 02:29:56;;;;;;;3.05;1.00;;;8.50;99.90;;;;;;4963963;28;20068;-70
2023/04/20 02:32:22;;;;;;;3.50;1.17;;;8.50;99.90;;;;;;4963279;28;20384;-70
2023/04/20 02:34:48;;;;;;;4.47;1.30;;;8.50;99.90;;;;;;4961017;28;20122;-70
2023/04/20 02:37:13;;;;;;;4.43;1.30;;;8.50;99.90;;;;;;4966356;28;20077;-69
2023/04/20 02:39:39;;;;;;;3.75;1.17;;;8.50;99.90;;;;;;4967163;28;20050;-69
2023/04/20 02:42:05;;;;;;;4.35;1.85;;;8.50;99.90;;;;;;4981749;28;20131;-70
2023/04/20 02:44:31;;;;;;;4.07;1.40;;;8.50;99.90;;;;;;4962089;28;20047;-70
2023/04/20 02:46:56;;;;;;;6.85;1.70;;;8.40;99.90;;;;;;4962024;28;20043;-70
2023/04/20 02:49:22;;;;;;;5.25;1.40;;;8.40;99.90;;;;;;4965300;28;20129;-69
2023/04/20 02:51:48;;;;;;;8.15;1.65;;;8.40;99.90;;;;;;4977261;28;20047;-70
2023/04/20 02:54:13;;;;;;;3.88;1.42;;;8.30;99.90;;;;;;4959491;28;20471;-70
2023/04/20 02:56:39;;;;;;;5.43;1.52;;;8.30;99.90;;;;;;4960372;28;20149;-70
2023/04/20 02:59:05;;;;;;;3.95;1.27;;;8.30;99.90;;;;;;4962741;28;20042;-70
2023/04/20 03:01:31;;;;;;;4.18;1.80;;;8.20;99.90;;;;;;4961905;28;20105;-70
2023/04/20 03:03:57;;;;;;;4.28;1.35;;;8.20;99.90;;;;;;4963189;28;20043;-70
2023/04/20 03:06:22;;;;;;;4.10;1.48;;;8.20;99.90;;;;;;4967653;28;20133;-70
2023/04/20 03:08:48;;;;;;;3.08;1.58;;;8.20;99.90;;;;;;4962379;28;20038;-70
2023/04/20 03:11:14;;;;;;;5.00;1.52;;;8.20;99.90;;;;;;4962456;28;20043;-70
2023/04/20 03:13:40;;;;;;;5.85;1.30;;;8.20;99.90;;;;;;4964619;28;20783;-70
2023/04/20 03:16:06;;;;;;;4.85;1.52;;;8.20;99.90;;;;;;4961283;28;20129;-70
2023/04/20 03:18:32;;;;;;;5.30;1.42;;;8.20;99.90;;;;;;4961727;28;20063;-70
2023/04/20 03:20:58;;;;;;;4.25;1.52;;;8.30;99.90;;;;;;4966202;28;20046;-71
2023/04/20 03:23:23;;;;;;;2.70;1.20;;;8.30;99.90;;;;;;4960601;28;20731;-70
2023/04/20 03:25:49;;;;;;;6.28;1.65;;;8.30;99.90;;;;;;4954292;28;20058;-69
2023/04/20 03:28:15;;;;;;;4.30;1.77;;;8.30;99.90;;;;;;4968450;28;20039;-70
2023/04/20 03:30:41;;;;;;;6.22;1.88;;;8.30;99.90;;;;;;4969043;28;20166;-70
2023/04/20 03:33:07;;;;;;;6.47;1.55;;;8.40;99.90;;;;;;4970801;28;20045;-69
2023/04/20 03:35:33;;;;;;;3.70;1.38;;;8.30;99.90;;;;;;4968957;28;20049;-70
2023/04/20 03:37:58;;;;;;;5.63;1.60;;;8.30;99.90;;;;;;4966377;28;21148;-70
2023/04/20 03:40:24;;;;;;;4.22;1.70;;;8.30;99.90;;;;;;4965635;28;20551;-70
2023/04/20 03:42:50;;;;;;;3.28;1.13;;;8.30;99.90;;;;;;4960238;28;20103;-69
2023/04/20 03:45:16;;;;;;;3.95;1.58;;;8.30;99.90;;;;;;4983786;28;20129;-69
2023/04/20 03:47:42;;;;;;;3.90;1.60;;;8.40;99.90;;;;;;4964652;28;20050;-70
2023/04/20 03:50:08;;;;;;;4.22;1.80;;;8.40;99.90;;;;;;4965645;28;20129;-69
2023/04/20 03:52:33;;;;;;;4.80;1.42;;;8.40;99.90;;;;;;4963276;28;20046;-70
2023/04/20 03:54:59;;;;;;;5.22;1.70;;;8.40;99.90;;;;;;4966626;28;20041;-69
2023/04/20 03:57:25;;;;;;;4.63;1.40;;;8.40;99.90;;;;;;4968113;28;20114;-70
2023/04/20 03:59:51;;;;;;;4.18;1.58;;;8.40;99.90;;;;;;4963654;28;20495;-69
2023/04/20 04:02:17;;;;;;;5.10;1.80;;;8.40;99.90;;;;;;4965340;28;20038;-70
2023/04/20 04:04:44;;;;;;;5.85;1.70;;;8.40;99.90;;;;;;4963494;28;20549;-70
2023/04/20 04:07:09;;;;;;;4.65;1.77;;;8.40;99.90;;;;;;4964619;28;20035;-69
2023/04/20 04:09:35;;;;;;;3.60;1.42;;;8.40;99.90;;;;;;4962331;28;20057;-69
2023/04/20 04:12:03;;;;;;;3.75;1.33;;;8.30;99.90;;;;;;4969041;28;20034;-69
2023/04/20 04:14:29;;;;;;;4.72;1.80;;;8.30;99.90;;;;;;4966885;28;20109;-69
2023/04/20 04:16:55;;;;;;;4.90;1.83;;;8.20;99.90;;;;;;4983391;28;20039;-70
2023/04/20 04:19:20;;;;;;;4.75;1.60;;;8.20;99.90;;;;;;4983324;28;20046;-69
2023/04/20 04:21:46;;;;;;;4.78;1.52;;;8.20;99.90;;;;;;4966770;28;20081;-69
2023/04/20 04:24:12;;;;;;;4.50;1.95;;;8.10;99.90;;;;;;4967446;28;20073;-68
2023/04/20 04:26:37;;;;;;;5.75;2.00;;;8.00;99.90;;;;;;4978627;28;20077;-68
2023/04/20 04:29:03;;;;;;;5.65;2.03;;;7.90;99.90;;;;;;4962838;28;20043;-69
2023/04/20 04:31:31;;;;;;;4.00;1.58;;;7.80;99.90;;;;;;4979680;28;20092;-68
2023/04/20 04:33:57;;;;;;;2.65;1.40;;;7.70;99.90;;;;;;4966464;28;20073;-68
2023/04/20 04:36:25;;;;;;;4.00;1.85;;;7.60;99.90;;;;;;4981547;28;20435;-68
2023/04/20 04:38:52;;;;;;;3.95;1.88;;;7.50;99.90;;;;;;4964062;28;20117;-69
2023/04/20 04:41:17;;;;;;;3.42;1.95;;;7.40;99.90;;;;;;4965473;28;20530;-68
2023/04/20 04:43:43;;;;;;;3.38;1.92;;;7.30;99.90;;;;;;4968196;28;20065;-70
2023/04/20 04:46:10;;;;;;;5.30;2.50;;;7.20;99.90;;;;;;4966458;28;20050;-69
2023/04/20 04:48:41;;;;;;;3.92;1.83;;;7.10;99.90;;;;;;4964037;28;20092;-69
2023/04/20 04:51:07;;;;;;;4.68;1.98;;;7.00;99.90;;;;;;4962603;28;20034;-69
2023/04/20 04:53:33;;;;;;;6.75;2.22;;;7.00;99.90;;;;;;4963827;28;20110;-68
2023/04/20 04:55:59;;;;;;;4.57;1.75;;;6.90;99.90;;;;;;4966768;28;20451;-70
2023/04/20 04:58:25;;;;;;;3.20;1.90;;;6.90;99.90;;;;;;4964052;28;20058;-69
2023/04/20 05:00:51;;;;;;;5.72;2.33;;;6.90;99.90;;;;;;4966538;28;20042;-69
2023/04/20 05:03:16;;;;;;;4.10;1.92;;;6.90;99.90;;;;;;4982245;28;20498;-69
2023/04/20 05:05:42;;;;;;;6.93;2.35;;;6.90;99.90;;;;;;4965828;28;21986;-69
2023/04/20 05:08:08;;;;;;;4.95;2.17;;;6.90;99.90;;;;;;4965258;28;20031;-71
2023/04/20 05:10:33;;;;;;;5.32;2.08;;;6.90;99.90;;;;;;4971598;28;20073;-70
2023/04/20 05:12:59;;;;;;;3.60;1.55;;;7.00;99.90;;;;;;4971146;28;20034;-71
2023/04/20 05:15:25;;;;;;;6.18;2.45;;;6.90;99.90;;;;;;4966921;28;20494;-70
2023/04/20 05:17:51;;;;;;;4.40;1.63;;;6.90;99.90;;;;;;4968738;28;20038;-70
2023/04/20 05:20:18;;;;;;;5.70;1.95;;;7.00;99.90;;;;;;4969808;28;20045;-70
2023/04/20 05:22:44;;;;;;;6.65;2.50;;;7.00;99.90;;;;;;4970094;28;20082;-71
2023/04/20 05:25:10;;;;;;;5.53;1.92;;;7.00;99.90;;;;;;4974593;28;20078;-70
2023/04/20 05:27:36;;;;;;;5.93;2.35;;;7.00;99.90;;;;;;4966259;28;20058;-71
2023/04/20 05:30:02;;;;;;;5.15;1.98;;;7.00;99.90;;;;;;4973816;28;20045;-71
2023/04/20 05:32:28;;;;;;;5.65;1.80;;;7.00;99.90;;;;;;4971221;28;20536;-71
2023/04/20 05:34:54;;;;;;;4.07;1.40;;;7.00;99.90;;;;;;4954487;28;20064;-70
2023/04/20 05:37:20;;;;;;;5.15;2.20;;;7.10;99.90;;;;;;4969864;28;20092;-71
2023/04/20 05:39:45;;;;;;;6.63;1.80;;;7.10;99.90;;;;;;4968190;28;20633;-71
2023/04/20 05:42:11;;;;;;;5.55;2.08;;;7.10;99.90;;;;;;4967973;28;20460;-71
2023/04/20 05:44:38;;;;;;;4.60;2.00;;;7.10;99.90;;;;;;4972495;28;20045;-71
2023/04/20 05:47:07;;;;;;;8.68;1.88;;;7.10;99.90;;;;;;4982256;28;20043;-71
2023/04/20 05:49:34;;;;;;;4.00;2.15;;;7.10;99.90;;;;;;4987953;28;20034;-71
2023/04/20 05:52:03;;;;;;;4.57;2.13;;;7.10;99.90;;;;;;4971519;28;20538;-71
2023/04/20 05:54:28;;;;;;;6.07;2.03;;;7.00;99.90;;;;;;4966626;28;20575;-71
2023/04/20 05:56:56;;;;;;;4.68;2.60;;;7.10;99.90;;;;;;4968768;28;20104;-71
2023/04/20 05:59:21;;;;;;;6.50;2.30;;;7.10;99.90;;;;;;4973768;28;20607;-72
2023/04/20 06:01:47;;;;;;;5.40;2.13;;;7.10;99.90;;;;;;4962992;28;20042;-72
2023/04/20 06:04:13;;;;;;;4.10;1.67;;;7.10;99.90;;;;;;4957755;28;20038;-72
2023/04/20 06:06:39;;;;;;;2.65;1.55;;;7.00;99.90;;;;;;4965438;28;20046;-73
2023/04/20 06:09:04;;;;;;;2.53;2.00;;;7.00;99.90;;;;;;4964451;28;20039;-72
2023/04/20 06:11:32;;;;;;;4.63;2.05;;;7.00;99.90;;;;;;4967527;28;20038;-72
2023/04/20 06:13:58;;;;;;;5.88;1.98;;;7.00;99.90;;;;;;4970456;28;20125;-72
2023/04/20 06:16:24;;;;;;;4.85;1.90;;;6.90;99.90;;;;;;4966502;28;20121;-72
2023/04/20 06:18:50;;;;;;;5.13;1.80;;;7.00;99.90;;;;;;4955253;28;20043;-73
2023/04/20 06:21:16;;;;;;;4.32;1.88;;;6.90;99.90;;;;;;4967400;28;20521;-72
2023/04/20 06:23:43;;;;;;;4.65;1.80;;;6.90;99.90;;;;;;4966459;28;20457;-72
2023/04/20 06:26:09;;;;;;;4.25;2.33;;;6.90;99.90;;;;;;4971646;28;20046;-72
2023/04/20 06:28:36;;;;;;;3.08;1.88;;;6.90;99.90;;;;;;4968505;28;20135;-72
2023/04/20 06:31:03;;;;;;;4.30;2.40;;;6.90;99.90;;;;;;4966693;28;20042;-72
2023/04/20 06:33:29;;;;;;;3.63;2.25;;;6.80;99.90;;;;;;4982851;28;20107;-72
2023/04/20 06:35:55;;;;;;;5.32;2.33;;;6.80;99.90;;;;;;4982275;28;20422;-73
2023/04/20 06:38:22;;;;;;;4.55;2.80;;;6.70;99.90;;;;;;4968246;28;20769;-74
2023/04/20 06:40:48;;;;;;;3.85;1.75;;;6.60;99.90;;;;;;4952829;28;20054;-73
2023/04/20 06:43:14;;;;;;;7.72;2.33;;;6.60;99.90;;;;;;4964309;28;20046;-74
2023/04/20 06:45:40;;;;;;;4.90;2.03;;;6.50;99.90;;;;;;4967329;28;20034;-75
2023/04/20 06:48:06;;;;;;;3.40;2.33;;;6.40;99.90;;;;;;4966133;28;20045;-77
2023/04/20 06:50:31;;;;;;;4.22;2.40;;;6.30;99.90;;;;;;4955837;28;20042;-76
2023/04/20 06:53:02;;;;;;;5.97;2.78;;;6.20;99.90;;;;;;4968241;28;20165;-77
2023/04/20 06:55:27;;;;;;;4.95;2.45;;;6.10;99.90;;;;;;4957189;28;20038;-76
2023/04/20 06:57:53;;;;;;;4.20;2.63;;;6.00;99.90;;;;;;4984584;28;20034;-71
2023/04/20 07:00:19;;;;;;;5.18;2.63;;;5.80;99.90;;;;;;4967059;28;20517;-75
2023/04/20 07:02:50;;;;;;;6.68;3.00;;;5.70;99.90;;;;;;4962804;28;20061;-76
2023/04/20 07:05:16;;;;;;;5.82;2.90;;;5.70;99.90;;;;;;4969012;28;20039;-74
2023/04/20 07:07:43;;;;;;;4.88;3.00;;;5.60;99.90;;;;;;4962540;28;20045;-73
2023/04/20 07:10:11;;;;;;;8.73;3.40;;;5.60;99.90;;;;;;4969574;28;20409;-73
2023/04/20 07:12:38;;;;;;;5.93;3.50;;;5.60;99.90;;;;;;4955329;28;20489;-72
2023/04/20 07:15:05;;;;;;;4.70;3.15;;;5.70;99.90;;;;;;4973516;28;20536;-72
2023/04/20 07:17:34;;;;;;;4.50;3.20;;;5.70;99.90;;;;;;4966005;28;20057;-72
2023/04/20 07:20:07;;;;;;;4.38;3.03;;;5.70;99.90;;;;;;4966465;28;20386;-72
2023/04/20 07:22:37;;;;;;;5.13;3.15;;;5.70;99.90;;;;;;4968734;28;20070;-72
2023/04/20 07:25:05;;;;;;;5.50;3.58;;;5.70;99.90;;;;;;4985913;28;20502;-72
2023/04/20 07:27:34;;;;;;;3.80;2.88;;;5.80;99.90;;;;;;4969771;28;20058;-71
2023/04/20 07:30:00;;;;;;;4.45;3.05;;;5.80;99.90;;;;;;4971905;28;20065;-71
2023/04/20 07:32:26;;;;;;;7.50;3.55;;;5.80;99.90;;;;;;4968165;28;20038;-71
2023/04/20 07:34:52;;;;;;;5.90;3.70;;;5.80;99.90;;;;;;4967766;28;20049;-70
2023/04/20 07:37:18;;;;;;;6.53;3.30;;;5.90;99.90;;;;;;4970431;28;20046;-71
2023/04/20 07:39:44;;;;;;;7.47;3.83;;;5.90;99.90;;;;;;4967168;28;20084;-71
2023/04/20 07:42:09;;;;;;;6.18;3.40;;;6.00;99.90;;;;;;4970492;28;20458;-71
2023/04/20 07:44:36;;;;;;;4.55;3.45;;;6.10;99.90;;;;;;4969499;28;20046;-71
2023/04/20 07:47:02;;;;;;;6.15;3.53;;;6.10;99.90;;;;;;4962056;28;20100;-72
2023/04/20 07:49:28;;;;;;;5.85;4.13;;;6.20;99.90;;;;;;4968793;28;20042;-72
2023/04/20 07:51:54;;;;;;;4.57;3.75;;;6.30;99.90;;;;;;4971489;28;20095;-72
2023/04/20 07:54:19;;;;;;;5.70;4.05;;;6.30;99.90;;;;;;4970057;28;20483;-72
2023/04/20 07:56:45;;;;;;;9.57;3.83;;;6.30;99.90;;;;;;4972424;28;20073;-72
2023/04/20 07:59:11;;;;;;;6.05;3.97;;;6.30;99.90;;;;;;4971065;28;20074;-72
2023/04/20 08:01:37;;;;;;;5.85;3.92;;;6.40;99.90;;;;;;4963858;28;20134;-72
2023/04/20 08:04:02;;;;;;;5.30;3.83;;;6.40;99.90;;;;;;4971926;28;20449;-72
2023/04/20 08:06:28;;;;;;;5.50;3.63;;;6.50;99.90;;;;;;4966701;28;20134;-72
2023/04/20 08:08:54;;;;;;;6.55;3.90;;;6.50;99.90;;;;;;4967786;28;20069;-73
2023/04/20 08:11:20;;;;;;;5.57;3.92;;;6.60;99.90;;;;;;4967003;28;20134;-73
2023/04/20 08:13:46;;;;;;;5.47;3.78;;;6.70;99.90;;;;;;4986732;28;20030;-73
2023/04/20 08:16:12;;;;;;;8.45;4.13;;;6.70;99.90;;;;;;4971833;28;20100;-73
2023/04/20 08:18:37;;;;;;;9.27;4.60;;;6.90;99.90;;;;;;4978496;28;20517;-73
2023/04/20 08:21:03;;;;;;;7.25;3.75;;;7.00;99.90;;;;;;4963726;28;20045;-73
2023/04/20 08:23:29;;;;;;;8.25;4.20;;;7.10;99.90;;;;;;4953323;28;20047;-73
2023/04/20 08:25:55;;;;;;;9.70;4.25;;;7.20;99.90;;;;;;4968671;28;20708;-73
2023/04/20 08:28:21;;;;;;;9.27;4.20;;;7.30;99.90;;;;;;4964196;28;20126;-73
2023/04/20 08:30:47;;;;;;;5.45;4.30;;;7.40;99.90;;;;;;4955455;28;20077;-75
2023/04/20 08:33:13;;;;;;;7.55;4.25;;;7.40;99.90;;;;;;4974959;28;20074;-73
2023/04/20 08:35:39;;;;;;;8.23;3.97;;;7.40;99.90;;;;;;4955226;28;20039;-75
2023/04/20 08:38:04;;;;;;;7.57;3.95;;;7.40;99.90;;;;;;4965601;28;20498;-76
2023/04/20 08:40:31;;;;;;;8.27;4.72;;;7.30;99.90;;;;;;4957997;28;20170;-74
2023/04/20 08:43:00;;;;;;;6.22;4.25;;;7.30;99.90;;;;;;4968162;28;20313;-74
2023/04/20 08:45:26;;;;;;;8.50;4.95;;;7.30;99.90;;;;;;4972549;28;20053;-73
2023/04/20 08:47:52;;;;;;;7.53;4.50;;;7.30;99.90;;;;;;4964202;28;20090;-73
2023/04/20 08:50:19;;;;;;;6.95;4.28;;;7.30;99.90;;;;;;4970990;28;20336;-73
2023/04/20 08:52:45;;;;;;;6.78;4.47;;;7.30;99.90;;;;;;4966025;28;20143;-74
2023/04/20 08:55:18;;;;;;;10.68;5.38;;;7.40;99.90;;;;;;4955192;28;20043;-74
2023/04/20 08:57:46;;;;;;;11.75;4.80;;;7.40;99.90;;;;;;4969040;28;20037;-74
2023/04/20 09:00:13;;;;;;;10.98;4.97;;;7.40;99.90;;;;;;4958965;28;20046;-75
2023/04/20 09:02:54;;;;;;;7.18;4.97;;;7.40;99.90;;;;;;4962036;28;20045;-74
2023/04/20 09:05:30;;;;;;;9.82;5.47;;;7.40;99.90;;;;;;4970375;28;20067;-74
2023/04/20 09:08:00;;;;;;;8.27;5.20;;;7.40;99.90;;;;;;4968658;28;20046;-74
2023/04/20 09:10:38;;;;;;;7.57;4.65;;;7.40;99.90;;;;;;4971311;28;20046;-74
2023/04/20 09:13:04;;;;;;;7.43;4.40;;;7.30;99.90;;;;;;4967424;28;20034;-74
2023/04/20 09:15:31;;;;;;;10.98;5.55;;;7.30;99.90;;;;;;4954103;28;20743;-74
2023/04/20 09:17:57;;;;;;;6.68;4.72;;;7.30;99.90;;;;;;4971411;28;20038;-74
2023/04/20 09:20:33;;;;;;;8.80;4.90;;;7.40;99.90;;;;;;4972899;28;20065;-75
2023/04/20 09:23:16;;;;;;;8.52;5.22;;;7.40;99.90;;;;;;4971238;28;20438;-75
2023/04/20 09:25:45;;;;;;;8.15;4.20;;;7.40;99.90;;;;;;4962529;28;20466;-75
2023/04/20 09:28:12;;;;;;;11.50;5.18;;;7.50;99.90;;;;;;4973148;28;20035;-74
2023/04/20 09:30:40;;;;;;;7.35;4.85;;;7.50;99.90;;;;;;4962358;28;20033;-74
2023/04/20 09:33:11;;;;;;;8.35;5.13;;;7.60;99.90;;;;;;4967934;28;20352;-75
2023/04/20 09:35:44;;;;;;;9.70;4.82;;;7.60;99.90;;;;;;4956846;28;20137;-74
2023/04/20 09:38:14;;;;;;;9.32;5.00;;;7.80;99.90;;;;;;4969209;28;20073;-74
2023/04/20 09:40:40;;;;;;;6.13;4.70;;;8.00;99.90;;;;;;4964867;28;20065;-74
2023/04/20 09:43:16;;;;;;;10.13;4.85;;;8.00;99.90;;;;;;4966318;28;20407;-74
2023/04/20 09:45:42;;;;;;;7.00;5.20;;;8.00;99.90;;;;;;4969308;28;20042;-74
2023/04/20 09:48:08;;;;;;;9.73;5.50;;;7.90;99.90;;;;;;4986363;28;20235;-74
2023/04/20 09:50:36;;;;;;;9.20;5.10;;;7.90;99.90;;;;;;4968328;28;20050;-74
2023/04/20 09:53:06;;;;;;;8.02;5.70;;;7.90;99.90;;;;;;4963533;28;20045;-74
2023/04/20 09:55:32;;;;;;;6.80;4.90;;;8.00;99.90;;;;;;4986272;28;20043;-73
2023/04/20 09:58:01;;;;;;;9.20;5.88;;;8.10;99.90;;;;;;4968889;28;20347;-74
2023/04/20 10:00:27;;;;;;;8.65;5.47;;;8.20;99.90;;;;;;4967324;28;20406;-74
2023/04/20 10:02:53;;;;;;;11.70;5.28;;;8.30;99.90;;;;;;4962040;28;20043;-73
2023/04/20 10:05:21;;;;;;;10.32;5.28;;;8.40;99.90;;;;;;4967305;28;20518;-74
2023/04/20 10:07:57;;;;;;;9.50;5.45;;;8.40;99.90;;;;;;4969413;28;20117;-75
2023/04/20 10:10:23;;;;;;;7.65;5.00;;;8.40;99.90;;;;;;4963845;28;20046;-74
2023/04/20 10:12:58;;;;;;;7.45;5.40;;;8.40;99.90;;;;;;4967094;28;20030;-74
2023/04/20 10:15:39;;;;;;;11.25;4.80;;;8.40;99.90;;;;;;4966670;28;20065;-74
2023/04/20 10:18:22;;;;;;;8.93;5.38;;;8.40;99.90;;;;;;4972423;28;20451;-74
2023/04/20 10:20:48;;;;;;;9.07;5.32;;;8.50;99.90;;;;;;4968612;28;20391;-73
2023/04/20 10:23:17;;;;;;;8.13;4.93;;;8.40;99.90;;;;;;4963179;28;20097;-73
2023/04/20 10:25:57;;;;;;;7.78;5.40;;;8.50;99.90;;;;;;4968171;28;20109;-74
2023/04/20 10:28:23;;;;;;;8.40;5.43;;;8.80;99.90;;;;;;4971067;28;20062;-74
2023/04/20 10:30:51;;;;;;;10.75;5.63;;;9.10;99.90;;;;;;4969692;28;20030;-74
2023/04/20 10:33:17;;;;;;;7.20;4.93;;;9.50;99.90;;;;;;4964520;28;20070;-74
2023/04/20 10:35:53;;;;;;;6.85;5.47;;;9.60;99.90;;;;;;4971732;28;20113;-73
2023/04/20 10:38:35;;;;;;;8.35;5.47;;;9.70;99.90;;;;;;4961660;28;20130;-74
2023/04/20 10:41:11;;;;;;;6.10;5.50;;;10.20;99.90;;;;;;4963211;28;20039;-75
2023/04/20 10:43:42;;;;;;;7.50;5.72;;;10.60;99.90;;;;;;4954416;28;20039;-76
2023/04/20 10:46:23;;;;;;;8.90;5.93;;;10.60;99.90;;;;;;4979548;28;20045;-75
2023/04/20 10:49:02;;;;;;;7.93;5.82;;;10.60;99.90;;;;;;4967733;28;20057;-76
2023/04/20 10:51:28;;;;;;;8.13;5.97;;;10.60;99.90;;;;;;4954586;28;20088;-73
2023/04/20 10:54:03;;;;;;;7.07;5.85;;;10.30;99.90;;;;;;4967841;28;20049;-75
2023/04/20 10:56:40;;;;;;;10.60;6.38;;;10.00;99.90;;;;;;4946021;28;20495;-74
2023/04/20 10:59:07;;;;;;;9.02;6.10;;;9.90;99.90;;;;;;4951647;28;20038;-74
2023/04/20 11:01:33;;;;;;;9.38;5.63;;;9.70;99.90;;;;;;4969615;28;20413;-74
2023/04/20 11:03:59;;;;;;;7.80;5.63;;;9.50;99.90;;;;;;4968746;28;20039;-74
2023/04/20 11:06:25;;;;;;;7.78;5.97;;;9.50;99.90;;;;;;4957123;28;20117;-75
2023/04/20 11:08:50;;;;;;;7.85;6.63;;;9.80;99.90;;;;;;4975872;28;20049;-75
2023/04/20 11:11:18;;;;;;;9.75;6.50;;;10.20;99.90;;;;;;4970477;28;20069;-77
2023/04/20 11:13:44;;;;;;;6.93;6.22;;;10.70;99.90;;;;;;4970295;28;20101;-76
2023/04/20 11:16:12;;;;;;;8.65;6.90;;;11.30;99.90;;;;;;4972174;28;20133;-76
2023/04/20 11:18:49;;;;;;;8.05;6.90;;;11.80;99.90;;;;;;4964503;28;20042;-71
2023/04/20 11:21:15;;;;;;;7.60;6.25;;;12.30;99.90;;;;;;4971070;28;20049;-76
2023/04/20 11:23:41;;;;;;;8.50;6.57;;;12.30;99.90;;;;;;4971387;28;20042;-76
2023/04/20 11:26:09;;;;;;;8.93;6.45;;;12.10;99.90;;;;;;4969684;28;20117;-73
2023/04/20 11:28:35;;;;;;;12.13;7.53;;;11.70;99.90;;;;;;4978541;28;20439;-76
2023/04/20 11:31:01;;;;;;;10.15;8.45;;;11.40;99.90;;;;;;4972332;28;20053;-76
2023/04/20 11:33:29;;;;;;;10.90;7.57;;;11.30;99.90;;;;;;4964484;28;20056;-74
2023/04/20 11:36:00;;;;;;;7.78;6.75;;;11.60;99.90;;;;;;4969017;28;20046;-74
2023/04/20 11:38:31;;;;;;;8.15;7.35;;;11.50;99.90;;;;;;4968364;28;20073;-78
2023/04/20 11:41:03;;;;;;;11.15;7.03;;;11.50;99.90;;;;;;4980526;28;20042;-78
2023/04/20 11:43:31;;;;;;;8.95;7.00;;;11.40;99.90;;;;;;4949026;28;20181;-78
2023/04/20 11:45:58;;;;;;;9.15;7.32;;;11.40;99.90;;;;;;4965838;28;20403;-76
2023/04/20 11:48:24;;;;;;;10.15;8.23;;;11.20;99.90;;;;;;4964009;28;20038;-75
2023/04/20 11:50:50;;;;;;;8.98;7.45;;;11.40;99.90;;;;;;4964734;28;20118;-75
2023/04/20 11:53:16;;;;;;;9.60;7.20;;;11.90;99.90;;;;;;4968879;28;20121;-75
2023/04/20 11:55:42;;;;;;;8.60;7.60;;;12.30;99.90;;;;;;4960929;28;20057;-75
2023/04/20 11:58:08;;;;;;;8.50;7.43;;;12.70;99.90;;;;;;4965719;28;20039;-74
2023/04/20 12:00:34;;;;;;;7.53;6.82;;;13.10;99.90;;;;;;4963774;28;20034;-73
2023/04/20 12:03:00;;;;;;;9.68;8.13;;;13.40;99.90;;;;;;4963020;28;20168;-73
2023/04/20 12:05:27;;;;;;;7.80;6.32;;;13.20;99.90;;;;;;4982152;28;20054;-73
2023/04/20 12:07:53;;;;;;;6.95;6.20;;;12.80;99.90;;;;;;4966307;28;20054;-73
2023/04/20 12:10:18;;;;;;;21.88;15.82;;;12.60;99.90;;;;;;4981547;28;20035;-73
2023/04/20 12:12:44;;;;;;;7.53;6.28;;;12.20;99.90;;;;;;4968562;28;20054;-71
2023/04/20 12:15:10;;;;;;;11.35;9.40;;;12.30;99.90;;;;;;4966451;28;20319;-73
2023/04/20 12:17:36;;;;;;;8.18;6.63;;;12.50;99.90;;;;;;4986639;28;20050;-73
2023/04/20 12:20:03;;;;;;;8.88;6.68;;;12.40;99.90;;;;;;4971836;28;20058;-72
2023/04/20 12:22:29;;;;;;;8.68;6.15;;;12.20;99.90;;;;;;4968043;28;20084;-73
2023/04/20 12:24:55;;;;;;;6.93;6.22;;;12.30;99.90;;;;;;4981730;28;20491;-71
2023/04/20 12:27:21;;;;;;;6.93;6.22;;;12.10;99.90;;;;;;4954421;28;20059;-73
2023/04/20 12:29:47;;;;;;;9.10;7.63;;;12.40;99.90;;;;;;4968664;28;20050;-73
2023/04/20 12:32:13;;;;;;;7.15;6.20;;;12.40;99.90;;;;;;4968377;28;20053;-72
2023/04/20 12:34:38;;;;;;;8.85;6.90;;;12.20;99.90;;;;;;4966105;28;20041;-72
2023/04/20 12:37:04;;;;;;;9.88;7.63;;;12.10;99.90;;;;;;4968767;28;20046;-72
2023/04/20 12:39:30;;;;;;;9.68;6.78;;;12.00;99.90;;;;;;4969669;28;20057;-73
2023/04/20 12:41:56;;;;;;;8.98;7.10;;;11.70;99.90;;;;;;4970617;28;20508;-71
2023/04/20 12:44:22;;;;;;;8.50;7.40;;;11.40;99.90;;;;;;4966408;28;20466;-71
2023/04/20 12:46:48;;;;;;;9.48;7.47;;;11.10;99.90;;;;;;4969686;28;20125;-72
2023/04/20 12:49:13;;;;;;;8.93;6.93;;;11.20;99.90;;;;;;4958257;28;20030;-72
2023/04/20 12:51:39;;;;;;;12.02;7.90;;;11.40;99.90;;;;;;4950125;28;20038;-72
2023/04/20 12:54:05;;;;;;;8.20;7.40;;;11.20;99.90;;;;;;4973717;28;20465;-72